Time;durP1;ratioP1;P1;durP2;ratioP2;P2;SDS_P1;SDS_P2;PMS_P1;PMS_P2;Temp;Humidity;BMP_temperature;BMP_pressure;BME280_temperature;BME280_humidity;BME280_pressure;Samples;Min_cycle;Max_cycle;Signal;HPM_P1;HPM_P2
2020/12/11 00:02:03;;;;;;;10.60;8.07;;;0.10;91.30;;;;;;6220706;28;20140;-73
2020/12/11 00:05:05;;;;;;;8.80;6.97;;;0.10;91.30;;;;;;6220327;28;20050;-73
2020/12/11 00:08:09;;;;;;;9.90;6.77;;;0.00;91.30;;;;;;6220149;28;20057;-73
2020/12/11 00:11:11;;;;;;;10.27;7.13;;;-0.10;91.40;;;;;;6220045;28;20041;-74
2020/12/11 00:14:12;;;;;;;10.47;7.00;;;-0.20;91.60;;;;;;6220434;28;20049;-73
2020/12/11 00:17:13;;;;;;;7.23;6.43;;;-0.20;91.90;;;;;;6220049;28;20050;-73
2020/12/11 00:20:15;;;;;;;10.27;7.27;;;-0.30;91.80;;;;;;6220262;28;20049;-73
2020/12/11 00:23:16;;;;;;;9.63;6.83;;;-0.30;92.00;;;;;;6219999;28;20121;-73
2020/12/11 00:26:18;;;;;;;9.90;7.40;;;-0.40;91.90;;;;;;6220237;28;20548;-73
2020/12/11 00:29:19;;;;;;;8.97;7.20;;;-0.40;92.10;;;;;;6220022;28;20050;-73
2020/12/11 00:32:21;;;;;;;8.97;6.13;;;-0.50;92.30;;;;;;6220308;28;20045;-73
2020/12/11 00:35:22;;;;;;;9.17;8.00;;;-0.50;92.20;;;;;;6219919;28;20172;-73
2020/12/11 00:38:23;;;;;;;10.90;7.00;;;-0.50;92.30;;;;;;6220512;28;20084;-73
2020/12/11 00:41:26;;;;;;;9.90;8.10;;;-0.50;92.50;;;;;;6220253;28;20100;-73
2020/12/11 00:44:27;;;;;;;12.70;7.93;;;-0.50;92.60;;;;;;6219746;28;20046;-73
2020/12/11 00:47:29;;;;;;;10.67;7.70;;;-0.50;92.60;;;;;;6220314;28;20054;-73
2020/12/11 00:50:30;;;;;;;9.33;8.33;;;-0.50;92.50;;;;;;6223506;28;20053;-73
2020/12/11 00:53:31;;;;;;;10.93;8.60;;;-0.60;92.40;;;;;;6224746;28;20529;-73
2020/12/11 00:56:33;;;;;;;10.37;7.30;;;-0.70;92.60;;;;;;6224890;28;20045;-73
2020/12/11 00:59:35;;;;;;;9.33;7.87;;;-0.70;92.80;;;;;;6224525;28;20526;-72
2020/12/11 01:02:36;;;;;;;9.33;7.60;;;-0.70;92.90;;;;;;6229813;28;20072;-73
2020/12/11 01:05:37;;;;;;;10.07;8.67;;;-0.70;92.90;;;;;;6249855;28;20100;-72
2020/12/11 01:08:38;;;;;;;15.23;7.07;;;-0.70;92.90;;;;;;6248949;28;20045;-73
2020/12/11 01:11:41;;;;;;;9.17;6.50;;;-0.70;92.90;;;;;;6233198;28;20042;-73
2020/12/11 01:14:42;;;;;;;8.77;7.00;;;-0.80;92.90;;;;;;6223590;28;20427;-73
2020/12/11 01:17:43;;;;;;;10.77;7.57;;;-0.90;93.00;;;;;;6224550;28;20487;-73
2020/12/11 01:20:45;;;;;;;9.47;8.17;;;-0.90;93.10;;;;;;6224332;28;20068;-73
2020/12/11 01:23:46;;;;;;;11.63;8.53;;;-0.90;93.20;;;;;;6224201;28;20431;-73
2020/12/11 01:26:49;;;;;;;9.47;6.63;;;-0.90;93.30;;;;;;6223694;28;20499;-72
2020/12/11 01:29:50;;;;;;;12.93;8.63;;;-0.80;93.30;;;;;;6224613;28;20050;-73
2020/12/11 01:32:51;;;;;;;10.93;8.50;;;-0.80;93.20;;;;;;6224045;28;20049;-72
2020/12/11 01:35:53;;;;;;;12.10;7.70;;;-0.80;93.10;;;;;;6224182;28;20125;-73
2020/12/11 01:38:54;;;;;;;9.63;8.50;;;-0.70;93.20;;;;;;6223917;28;20503;-72
2020/12/11 01:41:56;;;;;;;13.73;8.77;;;-0.70;93.10;;;;;;6224356;28;20049;-73
2020/12/11 01:44:58;;;;;;;11.87;8.50;;;-0.70;93.10;;;;;;6223609;28;20042;-73
2020/12/11 01:47:59;;;;;;;11.33;8.20;;;-0.70;93.10;;;;;;6223514;28;20056;-73
2020/12/11 01:51:01;;;;;;;9.97;7.23;;;-0.70;93.10;;;;;;6223834;28;20041;-73
2020/12/11 01:54:02;;;;;;;11.20;8.07;;;-0.70;93.10;;;;;;6223608;28;20042;-72
2020/12/11 01:57:06;;;;;;;11.03;8.40;;;-0.70;93.20;;;;;;6223418;28;20057;-72
2020/12/11 02:00:08;;;;;;;12.90;9.03;;;-0.70;93.30;;;;;;6223108;28;20578;-72
2020/12/11 02:03:11;;;;;;;9.60;7.63;;;-0.70;93.30;;;;;;6222295;28;20531;-73
2020/12/11 02:06:12;;;;;;;11.50;8.70;;;-0.80;93.40;;;;;;6223498;28;20631;-73
2020/12/11 02:09:14;;;;;;;12.70;8.97;;;-0.80;93.40;;;;;;6223335;28;20050;-73
2020/12/11 02:12:17;;;;;;;11.93;8.90;;;-0.80;93.40;;;;;;6223226;28;20140;-73
2020/12/11 02:15:18;;;;;;;12.60;9.30;;;-0.80;93.60;;;;;;6222573;28;20053;-72
2020/12/11 02:18:20;;;;;;;10.30;8.27;;;;;;;;;;6223215;28;20639;-72
2020/12/11 02:21:21;;;;;;;10.20;8.30;;;-0.70;93.30;;;;;;6222756;28;20053;-73
2020/12/11 02:24:23;;;;;;;13.93;9.20;;;-0.60;93.40;;;;;;6222639;28;20505;-73
2020/12/11 02:27:25;;;;;;;11.13;8.83;;;-0.50;93.40;;;;;;6222478;28;20053;-73
2020/12/11 02:30:26;;;;;;;11.50;8.73;;;-0.50;93.20;;;;;;6222818;28;20563;-73
2020/12/11 02:33:27;;;;;;;10.60;8.83;;;-0.50;93.10;;;;;;6222466;28;20042;-73
2020/12/11 02:36:29;;;;;;;13.57;9.23;;;-0.40;93.10;;;;;;6221930;28;20703;-73
2020/12/11 02:39:31;;;;;;;14.60;9.37;;;-0.50;93.10;;;;;;6222716;28;20049;-73
2020/12/11 02:42:32;;;;;;;9.73;7.93;;;-0.50;93.00;;;;;;6222158;28;20054;-73
2020/12/11 02:45:35;;;;;;;13.40;8.80;;;-0.50;93.10;;;;;;6221686;28;20042;-73
2020/12/11 02:48:36;;;;;;;11.97;8.13;;;-0.50;93.00;;;;;;6222034;28;20503;-73
2020/12/11 02:51:39;;;;;;;13.47;8.07;;;-0.50;93.00;;;;;;6222484;28;20188;-73
2020/12/11 02:54:41;;;;;;;10.97;8.97;;;-0.50;93.00;;;;;;6221818;28;20041;-73
2020/12/11 02:57:42;;;;;;;11.00;9.20;;;-0.50;93.00;;;;;;6222338;28;20096;-73
2020/12/11 03:00:44;;;;;;;11.97;8.10;;;-0.50;93.00;;;;;;6221622;28;20048;-73
2020/12/11 03:03:45;;;;;;;12.10;8.20;;;-0.40;93.00;;;;;;6233560;22;20053;-75
2020/12/11 03:06:46;;;;;;;11.80;9.07;;;-0.50;93.00;;;;;;6222195;28;20140;-75
2020/12/11 03:09:49;;;;;;;9.57;7.73;;;-0.50;93.10;;;;;;6222002;28;20046;-75
2020/12/11 03:12:50;;;;;;;10.40;7.97;;;-0.50;93.10;;;;;;6221021;28;20125;-75
2020/12/11 03:15:51;;;;;;;8.93;7.53;;;-0.50;93.20;;;;;;6221433;28;20046;-75
2020/12/11 03:18:52;;;;;;;13.40;8.83;;;-0.50;93.20;;;;;;6220474;28;20141;-75
2020/12/11 03:21:56;;;;;;;10.70;8.23;;;-0.50;93.30;;;;;;6221783;28;20054;-75
2020/12/11 03:24:59;;;;;;;11.97;8.47;;;-0.50;93.40;;;;;;6221293;28;20049;-75
2020/12/11 03:28:00;;;;;;;11.20;8.87;;;-0.50;93.40;;;;;;6221167;28;20554;-75
2020/12/11 03:31:02;;;;;;;11.77;8.93;;;-0.50;93.40;;;;;;6221234;28;20498;-75
2020/12/11 03:34:03;;;;;;;13.67;8.93;;;-0.60;93.50;;;;;;6221436;28;20061;-75
2020/12/11 03:37:05;;;;;;;11.43;8.60;;;-0.60;93.60;;;;;;6221106;28;20503;-75
2020/12/11 03:40:07;;;;;;;15.00;9.40;;;-0.60;93.60;;;;;;6221065;28;20188;-75
2020/12/11 03:43:08;;;;;;;14.37;10.13;;;-0.60;93.70;;;;;;6220593;28;20095;-75
2020/12/11 03:46:17;;;;;;;14.33;10.00;;;-0.70;93.80;;;;;;6221520;28;20137;-75
2020/12/11 03:49:18;;;;;;;10.00;8.47;;;-0.60;93.80;;;;;;6220949;28;20053;-75
2020/12/11 03:52:20;;;;;;;15.20;9.13;;;-0.60;93.80;;;;;;6220838;28;20073;-75
2020/12/11 03:55:22;;;;;;;10.67;8.23;;;-0.60;93.70;;;;;;6220147;28;20530;-75
2020/12/11 03:58:24;;;;;;;12.63;10.03;;;-0.60;93.70;;;;;;6221253;28;20133;-75
2020/12/11 04:01:25;;;;;;;26.27;9.73;;;-0.60;93.70;;;;;;6220448;28;20054;-75
2020/12/11 04:04:26;;;;;;;10.73;8.57;;;-0.50;93.60;;;;;;6220748;28;20042;-75
2020/12/11 04:07:28;;;;;;;12.10;7.90;;;-0.50;93.60;;;;;;6220402;28;20176;-75
2020/12/11 04:10:30;;;;;;;9.03;8.10;;;-0.50;93.50;;;;;;6221850;28;20136;-75
2020/12/11 04:13:32;;;;;;;11.47;8.87;;;-0.50;93.50;;;;;;6220650;28;20053;-75
2020/12/11 04:16:34;;;;;;;10.03;7.87;;;-0.50;93.40;;;;;;6220357;28;20542;-75
2020/12/11 04:19:35;;;;;;;14.03;9.40;;;-0.50;93.40;;;;;;6221086;28;20045;-75
2020/12/11 04:22:36;;;;;;;11.33;7.87;;;-0.50;93.50;;;;;;6219825;28;20048;-75
2020/12/11 04:25:39;;;;;;;9.33;7.23;;;-0.50;93.40;;;;;;6220533;28;20046;-75
2020/12/11 04:28:40;;;;;;;12.20;8.40;;;-0.50;93.30;;;;;;6220091;28;20046;-75
2020/12/11 04:31:41;;;;;;;10.93;9.30;;;-0.50;93.30;;;;;;6220382;28;20046;-75
2020/12/11 04:34:43;;;;;;;13.20;8.67;;;-0.50;93.40;;;;;;6219537;28;20049;-75
2020/12/11 04:37:44;;;;;;;12.80;8.53;;;-0.60;93.40;;;;;;6220730;28;20128;-74
2020/12/11 04:40:46;;;;;;;11.33;9.17;;;-0.60;93.40;;;;;;6220138;28;20396;-75
2020/12/11 04:43:50;;;;;;;12.10;9.53;;;-0.60;93.40;;;;;;6219683;28;20041;-76
2020/12/11 04:46:51;;;;;;;12.63;8.90;;;-0.70;93.50;;;;;;6219516;28;20112;-75
2020/12/11 04:49:54;;;;;;;12.70;8.30;;;-0.80;93.50;;;;;;6221328;28;20071;-75
2020/12/11 04:52:57;;;;;;;10.40;9.37;;;-0.80;93.50;;;;;;6220116;28;20041;-75
2020/12/11 04:56:01;;;;;;;11.87;9.23;;;-0.90;93.60;;;;;;6220103;28;20049;-75
2020/12/11 04:59:02;;;;;;;9.53;8.10;;;-0.90;93.70;;;;;;6220161;28;20046;-75
2020/12/11 05:02:12;;;;;;;11.70;8.27;;;-1.00;93.80;;;;;;6219945;28;20176;-75
2020/12/11 05:05:15;;;;;;;12.03;9.27;;;-1.00;93.90;;;;;;6219766;28;20042;-75
2020/12/11 05:08:20;;;;;;;14.37;9.43;;;-1.20;93.80;;;;;;6219721;28;20053;-75
2020/12/11 05:11:29;;;;;;;12.40;8.67;;;-1.20;94.00;;;;;;6219978;28;20175;-75
2020/12/11 05:14:31;;;;;;;15.00;8.33;;;-1.30;94.20;;;;;;6219509;28;20049;-75
2020/12/11 05:17:34;;;;;;;14.23;9.90;;;-1.30;94.20;;;;;;6219899;28;20038;-75
2020/12/11 05:20:35;;;;;;;12.43;8.20;;;-1.40;94.20;;;;;;6219805;28;20060;-75
2020/12/11 05:23:36;;;;;;;12.93;9.90;;;-1.40;94.20;;;;;;6220006;28;20046;-75
2020/12/11 05:26:39;;;;;;;12.23;9.20;;;-1.40;94.10;;;;;;6219244;28;20045;-75
2020/12/11 05:29:40;;;;;;;11.63;7.77;;;-1.40;94.20;;;;;;6220016;28;20076;-75
2020/12/11 05:32:43;;;;;;;11.27;8.53;;;-1.40;94.20;;;;;;6218939;28;20119;-75
2020/12/11 05:35:44;;;;;;;12.13;9.10;;;-1.50;94.20;;;;;;6219495;28;20583;-75
2020/12/11 05:38:47;;;;;;;9.87;7.23;;;-1.50;94.20;;;;;;6223694;28;20103;-75
2020/12/11 05:41:50;;;;;;;11.43;7.50;;;-1.50;94.20;;;;;;6224237;28;20061;-75
2020/12/11 05:44:51;;;;;;;12.20;8.83;;;-1.50;94.20;;;;;;6223629;28;20046;-75
2020/12/11 05:47:59;;;;;;;12.10;8.90;;;-1.50;94.20;;;;;;6223389;28;20666;-75
2020/12/11 05:51:12;;;;;;;11.07;9.25;;;-1.40;94.20;;;;;;6224049;28;20056;-75
2020/12/11 05:54:16;;;;;;;13.47;8.83;;;-1.40;94.30;;;;;;6223324;28;20053;-75
2020/12/11 05:57:18;;;;;;;12.17;8.67;;;-1.10;94.40;;;;;;6223160;28;20046;-75
2020/12/11 06:00:20;;;;;;;13.33;10.33;;;-1.10;94.00;;;;;;6223350;28;20064;-75
2020/12/11 06:03:23;;;;;;;13.83;10.93;;;-0.90;93.90;;;;;;6223113;28;20050;-75
2020/12/11 06:06:26;;;;;;;17.70;10.97;;;-0.70;93.80;;;;;;6223552;28;20053;-76
2020/12/11 06:09:33;;;;;;;15.30;10.77;;;-0.60;93.60;;;;;;6223332;28;20129;-75
2020/12/11 06:12:35;;;;;;;16.88;11.68;;;-0.50;93.50;;;;;;6222777;28;20056;-75
2020/12/11 06:15:41;;;;;;;11.20;9.97;;;-0.40;93.40;;;;;;6222707;28;20049;-74
2020/12/11 06:18:43;;;;;;;11.97;8.73;;;-0.30;93.30;;;;;;6222936;28;20064;-75
2020/12/11 06:21:45;;;;;;;11.90;9.93;;;-0.20;93.20;;;;;;6223486;28;20053;-75
2020/12/11 06:24:46;;;;;;;16.33;9.77;;;-0.10;93.20;;;;;;6223681;28;20518;-75
2020/12/11 06:27:49;;;;;;;15.47;9.83;;;0.00;93.20;;;;;;6222736;28;20460;-75
2020/12/11 06:30:54;;;;;;;14.80;9.37;;;0.10;93.10;;;;;;6222676;28;20062;-75
2020/12/11 06:33:57;;;;;;;12.83;9.77;;;0.20;93.10;;;;;;6222091;28;20415;-74
2020/12/11 06:36:58;;;;;;;12.17;9.37;;;0.30;93.00;;;;;;6222417;28;20053;-74
2020/12/11 06:40:00;;;;;;;12.73;8.40;;;0.40;92.90;;;;;;6222446;28;20124;-74
2020/12/11 06:43:02;;;;;;;13.57;9.87;;;0.40;92.80;;;;;;6222057;28;20179;-74
2020/12/11 06:46:17;;;;;;;18.10;11.93;;;0.40;92.80;;;;;;6222701;28;20097;-74
2020/12/11 06:49:20;;;;;;;11.33;9.40;;;0.50;92.80;;;;;;6221910;28;20144;-75
2020/12/11 06:52:21;;;;;;;14.43;9.70;;;0.60;92.70;;;;;;6222457;28;20048;-75
2020/12/11 06:55:23;;;;;;;12.93;9.00;;;0.70;92.70;;;;;;6222004;28;20046;-74
2020/12/11 06:58:25;;;;;;;25.50;16.50;;;0.80;92.50;;;;;;6222556;28;20170;-75
2020/12/11 07:01:29;;;;;;;89.07;67.67;;;0.80;92.50;;;;;;6221841;28;20125;-75
2020/12/11 07:04:38;;;;;;;19.87;15.23;;;0.90;92.40;;;;;;6211890;28;20103;-75
2020/12/11 07:07:39;;;;;;;25.33;20.77;;;0.90;92.30;;;;;;6205925;28;20050;-75
2020/12/11 07:10:42;;;;;;;26.60;17.17;;;0.90;92.30;;;;;;6217375;28;20188;-75
2020/12/11 07:13:51;;;;;;;47.67;38.23;;;0.90;92.20;;;;;;6211332;28;20057;-74
2020/12/11 07:16:53;;;;;;;35.47;30.63;;;1.00;92.20;;;;;;6196610;28;20178;-74
2020/12/11 07:19:54;;;;;;;25.97;18.40;;;1.00;92.20;;;;;;6197494;28;20101;-75
2020/12/11 07:22:59;;;;;;;16.47;12.70;;;1.20;94.40;;;;;;6213018;28;20054;-74
2020/12/11 07:26:00;;;;;;;18.90;13.93;;;1.30;93.90;;;;;;6221959;28;20132;-74
2020/12/11 07:29:04;;;;;;;29.97;26.97;;;1.20;92.20;;;;;;6221373;28;20069;-75
2020/12/11 07:32:05;;;;;;;41.10;32.37;;;1.20;92.10;;;;;;6221439;28;20397;-74
2020/12/11 07:35:09;;;;;;;30.43;22.43;;;1.30;92.10;;;;;;6220985;28;20128;-75
2020/12/11 07:38:11;;;;;;;34.37;24.77;;;1.30;92.10;;;;;;6220076;28;20419;-74
2020/12/11 07:41:17;;;;;;;48.67;35.73;;;1.40;92.20;;;;;;6196689;28;20136;-74
2020/12/11 07:44:23;;;;;;;51.90;31.43;;;1.40;92.20;;;;;;6196032;28;20042;-75
2020/12/11 07:47:27;;;;;;;110.67;71.07;;;1.50;92.30;;;;;;6196606;28;20066;-75
2020/12/11 07:50:30;;;;;;;145.07;84.90;;;1.50;92.30;;;;;;6197056;28;20054;-75
2020/12/11 07:53:31;;;;;;;22.83;16.73;;;1.60;92.30;;;;;;6196769;28;20054;-74
2020/12/11 07:56:32;;;;;;;20.27;13.83;;;1.60;92.30;;;;;;6197297;28;20050;-75
2020/12/11 07:59:35;;;;;;;15.63;12.50;;;1.70;92.30;;;;;;6196065;28;20137;-74
2020/12/11 08:02:36;;;;;;;17.13;13.60;;;1.70;92.30;;;;;;6196463;28;20046;-75
2020/12/11 08:05:39;;;;;;;17.33;12.37;;;1.70;92.20;;;;;;6196116;28;20468;-75
2020/12/11 08:08:40;;;;;;;18.93;10.63;;;1.80;92.20;;;;;;6195583;28;20065;-76
2020/12/11 08:11:44;;;;;;;34.27;11.27;;;1.80;92.00;;;;;;6195573;28;20121;-74
2020/12/11 08:14:46;;;;;;;16.87;11.13;;;1.80;92.00;;;;;;6216893;28;20491;-75
2020/12/11 08:17:47;;;;;;;12.93;9.30;;;1.90;92.00;;;;;;6220821;28;20099;-75
2020/12/11 08:20:54;;;;;;;16.13;10.67;;;1.80;92.00;;;;;;6220888;28;20074;-75
2020/12/11 08:23:56;;;;;;;14.40;10.13;;;1.90;92.00;;;;;;6220055;28;20049;-76
2020/12/11 08:26:57;;;;;;;13.43;9.17;;;1.90;92.00;;;;;;6219860;28;20057;-75
2020/12/11 08:30:09;;;;;;;11.37;8.73;;;1.90;92.10;;;;;;6220786;28;20058;-75
2020/12/11 08:33:11;;;;;;;19.03;10.73;;;2.00;92.00;;;;;;6219833;28;20050;-75
2020/12/11 08:36:24;;;;;;;14.40;10.37;;;2.00;91.90;;;;;;6219854;28;20056;-75
2020/12/11 08:39:28;;;;;;;14.87;10.60;;;2.10;92.00;;;;;;6220030;28;20626;-75
2020/12/11 08:42:32;;;;;;;14.23;10.17;;;2.10;91.60;;;;;;6219969;28;20058;-75
2020/12/11 08:45:38;;;;;;;12.13;9.50;;;2.10;91.50;;;;;;6220087;28;20061;-75
2020/12/11 08:48:59;;;;;;;15.03;9.17;;;2.20;91.60;;;;;;6219670;28;20173;-75
2020/12/11 08:52:00;;;;;;;13.53;9.17;;;2.20;91.30;;;;;;6220079;28;20396;-75
2020/12/11 08:55:02;;;;;;;14.67;10.00;;;2.10;91.20;;;;;;6219779;28;20050;-75
2020/12/11 08:58:03;;;;;;;17.87;9.67;;;2.10;91.10;;;;;;6219952;28;20384;-75
2020/12/11 09:01:05;;;;;;;21.87;11.30;;;2.10;91.10;;;;;;6219625;28;20096;-75
2020/12/11 09:04:07;;;;;;;11.73;8.33;;;2.20;91.20;;;;;;6219320;28;20176;-75
2020/12/11 09:07:11;;;;;;;11.43;8.73;;;2.20;91.10;;;;;;6219556;28;20176;-76
2020/12/11 09:10:13;;;;;;;10.30;8.23;;;2.20;91.10;;;;;;6220548;28;20510;-76
2020/12/11 09:13:14;;;;;;;10.27;8.53;;;2.20;91.00;;;;;;6223474;28;20125;-75
2020/12/11 09:16:16;;;;;;;12.80;10.70;;;2.40;92.20;;;;;;6221204;28;20046;-75
2020/12/11 09:19:18;;;;;;;14.30;9.93;;;2.50;91.10;;;;;;6220771;28;20041;-75
2020/12/11 09:22:19;;;;;;;10.03;8.53;;;2.50;91.00;;;;;;6211836;28;20061;-75
2020/12/11 09:25:20;;;;;;;10.27;7.77;;;2.40;91.00;;;;;;6217290;28;20133;-75
2020/12/11 09:28:23;;;;;;;15.60;10.80;;;2.60;91.20;;;;;;6217015;28;20050;-74
2020/12/11 09:31:26;;;;;;;15.47;9.70;;;2.60;90.60;;;;;;6212204;28;20038;-75
2020/12/11 09:34:31;;;;;;;13.07;10.57;;;2.70;90.30;;;;;;6206930;28;20124;-75
2020/12/11 09:37:33;;;;;;;13.93;9.73;;;2.60;90.20;;;;;;6222853;28;20527;-75
2020/12/11 09:40:42;;;;;;;13.50;9.47;;;2.60;90.10;;;;;;6222792;28;20257;-74
2020/12/11 09:47:18;;;;;;;15.40;9.27;;;2.60;89.90;;;;;;6220458;28;20104;-74
2020/12/11 09:50:33;;;;;;;13.70;10.07;;;2.60;89.30;;;;;;6224288;28;20060;-75
2020/12/11 09:53:55;;;;;;;13.83;11.00;;;2.60;89.30;;;;;;6223667;28;20052;-74
2020/12/11 09:56:57;;;;;;;15.83;10.50;;;2.60;89.50;;;;;;6223216;28;20041;-75
2020/12/11 10:00:01;;;;;;;14.47;10.63;;;2.70;89.20;;;;;;6225596;28;20180;-74
2020/12/11 10:03:06;;;;;;;15.77;9.63;;;2.70;89.30;;;;;;6223230;28;20046;-74
2020/12/11 10:06:09;;;;;;;15.00;10.07;;;2.70;89.10;;;;;;6223672;28;20492;-74
2020/12/11 10:09:10;;;;;;;17.93;10.93;;;2.70;89.50;;;;;;6222932;28;20050;-74
2020/12/11 10:12:12;;;;;;;14.53;9.47;;;2.70;89.30;;;;;;6223171;28;20049;-74
2020/12/11 10:15:15;;;;;;;14.73;11.03;;;2.60;88.80;;;;;;6223201;28;20069;-74
2020/12/11 10:18:17;;;;;;;14.23;10.07;;;2.50;89.70;;;;;;6223358;28;20050;-75
2020/12/11 10:21:18;;;;;;;13.73;10.70;;;2.50;90.10;;;;;;6223288;28;20050;-74
2020/12/11 10:24:21;;;;;;;16.13;11.17;;;2.60;90.10;;;;;;6222178;28;20622;-74
2020/12/11 10:27:22;;;;;;;14.57;11.53;;;2.70;90.10;;;;;;6222999;28;20128;-74
2020/12/11 10:30:23;;;;;;;14.83;11.03;;;2.80;90.00;;;;;;6222521;28;20747;-74
2020/12/11 10:33:26;;;;;;;16.53;11.70;;;2.90;89.60;;;;;;6222433;28;20062;-75
2020/12/11 10:36:31;;;;;;;15.03;11.07;;;3.10;89.20;;;;;;6222174;28;20050;-74
2020/12/11 10:39:32;;;;;;;15.23;10.70;;;3.30;88.80;;;;;;6222201;28;20450;-74
2020/12/11 10:42:33;;;;;;;16.27;10.47;;;3.20;89.60;;;;;;6222461;28;20054;-74
2020/12/11 10:45:35;;;;;;;15.87;13.20;;;3.00;90.20;;;;;;6221865;28;20132;-75
2020/12/11 10:48:37;;;;;;;16.20;10.77;;;2.90;91.00;;;;;;6221739;28;20136;-74
2020/12/11 10:51:38;;;;;;;14.83;11.60;;;3.10;91.20;;;;;;6221965;28;20053;-75
2020/12/11 10:54:39;;;;;;;13.63;11.30;;;3.30;91.10;;;;;;6221685;28;20595;-74
2020/12/11 10:57:41;;;;;;;18.53;13.80;;;3.50;90.90;;;;;;6222131;28;20049;-75
2020/12/11 11:00:42;;;;;;;17.40;11.03;;;3.60;90.50;;;;;;6221685;28;20042;-75
2020/12/11 11:03:45;;;;;;;16.27;11.13;;;;;;;;;;6221479;28;20046;-75
2020/12/11 11:06:50;;;;;;;15.88;10.77;;;4.40;88.90;;;;;;6221622;28;20105;-74
2020/12/11 11:10:01;;;;;;;13.02;8.98;;;5.10;86.40;;;;;;6222053;28;20054;-75
2020/12/11 11:13:14;;;;;;;10.98;9.25;;;5.60;84.00;;;;;;6221421;28;20041;-75
2020/12/11 11:16:23;;;;;;;11.48;7.45;;;6.20;80.90;;;;;;6221678;28;20054;-75
2020/12/11 11:19:30;;;;;;;15.85;10.30;;;6.70;76.80;;;;;;6221739;28;20177;-75
2020/12/11 11:22:43;;;;;;;12.00;9.57;;;7.40;74.20;;;;;;6222017;28;20180;-75
2020/12/11 11:29:04;;;;;;;11.05;9.52;;;8.00;72.00;;;;;;6221124;28;20129;-75
2020/12/11 11:32:05;;;;;;;31.20;12.40;;;8.20;70.10;;;;;;6221254;28;20129;-75
2020/12/11 11:35:07;;;;;;;17.58;11.10;;;8.30;70.40;;;;;;6220038;28;20125;-75
2020/12/11 11:38:10;;;;;;;17.88;10.75;;;8.10;70.80;;;;;;6221203;28;20188;-75
2020/12/11 11:41:11;;;;;;;14.75;10.25;;;7.90;70.90;;;;;;6221255;28;20120;-75
2020/12/11 11:47:37;;;;;;;17.15;11.85;;;7.40;71.80;;;;;;6195105;28;20049;-75
2020/12/11 11:50:47;;;;;;;19.70;11.30;;;7.30;72.10;;;;;;6221215;28;20089;-75
2020/12/11 11:53:48;;;;;;;14.90;12.30;;;7.20;72.20;;;;;;6220905;28;20117;-75
2020/12/11 11:56:49;;;;;;;13.25;10.10;;;7.20;72.20;;;;;;6220401;28;20184;-75
2020/12/11 11:59:51;;;;;;;18.23;12.13;;;7.20;72.10;;;;;;6221068;28;20073;-75
2020/12/11 12:02:52;;;;;;;16.85;11.50;;;7.10;71.90;;;;;;6220103;28;20141;-75
2020/12/11 12:05:54;;;;;;;15.30;11.25;;;7.00;71.60;;;;;;6220998;28;20642;-75
2020/12/11 12:08:55;;;;;;;16.10;11.70;;;6.90;71.70;;;;;;6220596;28;20045;-76
2020/12/11 12:11:57;;;;;;;19.73;12.38;;;6.80;72.10;;;;;;6220942;28;20176;-75
2020/12/11 12:14:58;;;;;;;22.95;13.70;;;6.60;72.40;;;;;;6197081;28;20073;-76
2020/12/11 12:18:02;;;;;;;42.78;29.88;;;6.50;72.90;;;;;;6196214;28;20054;-76
2020/12/11 12:21:08;;;;;;;45.97;34.53;;;6.40;73.20;;;;;;6196181;28;20053;-75
2020/12/11 12:30:47;;;;;;;;;;;6.00;74.30;;;;;;6165768;28;20547;-76
2020/12/11 12:37:38;;;;;;;19.25;12.32;;;5.80;75.20;;;;;;6120257;29;20050;-76
2020/12/11 12:44:04;;;;;;;22.85;14.75;;;5.60;76.40;;;;;;6194625;28;20063;-77
2020/12/11 12:47:05;;;;;;;21.48;16.42;;;5.40;77.30;;;;;;6198739;28;20046;-77
2020/12/11 12:50:08;;;;;;;20.63;14.68;;;5.30;77.80;;;;;;6201351;28;20185;-77
2020/12/11 12:53:11;;;;;;;20.60;14.55;;;5.30;78.20;;;;;;6199966;28;20125;-77
2020/12/11 12:59:36;;;;;;;19.27;13.25;;;5.20;78.90;;;;;;6187633;28;20038;-77
2020/12/11 13:03:12;;;;;;;24.98;16.35;;;5.20;78.90;;;;;;6200299;28;20060;-77
2020/12/11 13:06:13;;;;;;;20.60;18.40;;;5.10;79.40;;;;;;6201084;28;20054;-76
2020/12/11 13:09:17;;;;;;;13.52;11.02;;;5.20;78.70;;;;;;6201253;28;20220;-77
2020/12/11 13:12:18;;;;;;;15.93;11.77;;;5.20;78.50;;;;;;6201389;28;20046;-76
2020/12/11 13:15:20;;;;;;;15.93;13.05;;;5.20;78.50;;;;;;6223938;28;20042;-77
2020/12/11 13:18:21;;;;;;;13.45;10.60;;;5.10;78.30;;;;;;6224995;28;20136;-77
2020/12/11 13:21:27;;;;;;;12.38;10.18;;;5.00;78.40;;;;;;6224184;28;20050;-76
2020/12/11 13:27:49;;;;;;;16.02;11.63;;;5.00;79.80;;;;;;6223501;28;20042;-75
2020/12/11 13:30:50;;;;;;;18.52;13.85;;;5.00;80.10;;;;;;6224270;28;20573;-76
2020/12/11 13:33:51;;;;;;;12.65;9.73;;;4.90;80.60;;;;;;6224436;28;20053;-76
2020/12/11 13:36:53;;;;;;;13.82;11.23;;;4.90;81.00;;;;;;6223602;28;20046;-76
2020/12/11 13:39:55;;;;;;;17.02;11.70;;;4.80;81.60;;;;;;6224126;28;20132;-76
2020/12/11 13:42:57;;;;;;;30.77;18.73;;;4.70;82.60;;;;;;6223683;28;20054;-76
2020/12/11 13:45:58;;;;;;;23.33;15.55;;;4.70;83.80;;;;;;6223813;28;20141;-76
2020/12/11 13:48:59;;;;;;;15.57;12.52;;;4.60;84.30;;;;;;6225115;28;20475;-76
2020/12/11 13:52:01;;;;;;;23.27;16.88;;;4.60;84.70;;;;;;6233476;28;20045;-75
2020/12/11 13:55:03;;;;;;;15.50;12.55;;;4.60;86.30;;;;;;6254286;28;20057;-76
2020/12/11 13:58:04;;;;;;;15.32;10.25;;;4.60;87.80;;;;;;6248638;28;20030;-75
2020/12/11 14:01:09;;;;;;;17.05;12.10;;;4.60;87.00;;;;;;6254154;28;20033;-75
2020/12/11 14:04:10;;;;;;;15.25;11.30;;;4.60;86.80;;;;;;6243035;28;20632;-75
2020/12/11 14:07:11;;;;;;;13.52;10.60;;;4.50;86.90;;;;;;6245096;28;20029;-75
2020/12/11 14:10:13;;;;;;;13.90;11.93;;;4.40;86.60;;;;;;6224433;28;20137;-75
2020/12/11 14:13:15;;;;;;;15.77;12.20;;;4.40;87.20;;;;;;6214948;28;20475;-76
2020/12/11 14:16:20;;;;;;;18.90;12.75;;;4.30;88.30;;;;;;6214471;28;20044;-75
2020/12/11 14:22:42;;;;;;;17.25;12.00;;;4.30;89.20;;;;;;6190372;28;20447;-75
2020/12/11 14:25:45;;;;;;;18.38;12.45;;;4.30;89.00;;;;;;6209941;28;20416;-77
2020/12/11 14:28:46;;;;;;;14.98;11.77;;;4.30;88.90;;;;;;6213016;28;20185;-75
2020/12/11 14:31:48;;;;;;;18.75;12.85;;;4.20;88.90;;;;;;6208019;28;20046;-74
2020/12/11 14:34:53;;;;;;;18.55;13.77;;;4.10;89.20;;;;;;6215448;28;20129;-75
2020/12/11 14:37:58;;;;;;;17.75;12.07;;;4.10;90.00;;;;;;6213613;28;20042;-75
2020/12/11 14:41:00;;;;;;;14.07;11.32;;;4.00;90.50;;;;;;6213670;28;20053;-75
2020/12/11 14:44:01;;;;;;;20.33;14.38;;;3.90;90.90;;;;;;6211292;28;20073;-74
2020/12/11 14:47:03;;;;;;;20.58;14.30;;;3.90;91.30;;;;;;6210387;28;20046;-74
2020/12/11 14:50:05;;;;;;;19.98;14.50;;;3.80;91.60;;;;;;6216130;28;20093;-74
2020/12/11 14:53:07;;;;;;;16.27;12.18;;;4.00;93.10;;;;;;6218332;28;20141;-74
2020/12/11 14:56:09;;;;;;;20.25;14.43;;;4.00;92.30;;;;;;6215286;28;20069;-74
2020/12/11 14:59:11;;;;;;;23.25;15.57;;;3.90;92.20;;;;;;6213198;28;20123;-74
2020/12/11 15:02:15;;;;;;;22.13;15.88;;;3.80;92.20;;;;;;6210378;28;20483;-75
2020/12/11 15:05:17;;;;;;;21.40;17.05;;;3.70;92.80;;;;;;6256318;23;20060;-76
2020/12/11 15:08:18;;;;;;;23.20;18.75;;;3.80;93.30;;;;;;6267906;28;20057;-76
2020/12/11 15:11:20;;;;;;;21.20;16.40;;;3.70;92.90;;;;;;6257064;28;20095;-75
2020/12/11 15:14:22;;;;;;;23.53;16.57;;;3.70;93.30;;;;;;6264377;28;20484;-75
2020/12/11 15:17:23;;;;;;;22.80;17.63;;;3.70;93.40;;;;;;6292266;28;20045;-76
2020/12/11 15:20:24;;;;;;;26.40;16.25;;;3.70;93.40;;;;;;6295018;28;20048;-76
2020/12/11 15:23:26;;;;;;;20.10;15.97;;;3.80;93.40;;;;;;6294800;28;20190;-75
2020/12/11 15:26:28;;;;;;;22.58;16.00;;;3.80;93.60;;;;;;6295059;28;20128;-75
2020/12/11 15:29:29;;;;;;;27.15;18.25;;;3.80;93.60;;;;;;6291499;28;20525;-75
2020/12/11 15:32:30;;;;;;;22.83;16.98;;;3.80;93.60;;;;;;6289020;28;20053;-75
2020/12/11 15:35:32;;;;;;;23.58;16.95;;;3.80;93.60;;;;;;6293531;28;20086;-75
2020/12/11 15:38:33;;;;;;;26.13;18.45;;;3.90;93.90;;;;;;6280544;28;20061;-74
2020/12/11 15:41:35;;;;;;;23.65;16.63;;;3.90;94.10;;;;;;6245648;28;20037;-75
2020/12/11 15:44:36;;;;;;;27.50;17.02;;;4.00;94.20;;;;;;6269917;28;20085;-75
2020/12/11 15:47:38;;;;;;;22.05;16.65;;;3.90;94.10;;;;;;6293507;28;20127;-75
2020/12/11 15:50:39;;;;;;;23.00;16.90;;;3.90;94.20;;;;;;6293708;28;20173;-75
2020/12/11 15:53:41;;;;;;;22.20;17.00;;;4.00;94.20;;;;;;6294242;28;20557;-75
2020/12/11 15:56:45;;;;;;;26.10;18.45;;;4.00;94.10;;;;;;6293558;28;20056;-75
2020/12/11 15:59:47;;;;;;;23.58;17.13;;;4.00;94.00;;;;;;6294113;28;20041;-76
2020/12/11 16:02:49;;;;;;;28.55;18.88;;;4.10;94.00;;;;;;6294306;28;20123;-75
2020/12/11 16:05:52;;;;;;;28.67;18.40;;;4.10;94.00;;;;;;6293641;28;20056;-75
2020/12/11 16:08:53;;;;;;;20.23;15.77;;;4.10;94.20;;;;;;6291369;28;20051;-76
2020/12/11 16:11:56;;;;;;;23.33;16.35;;;4.10;94.30;;;;;;6290504;28;20151;-76
2020/12/11 16:14:58;;;;;;;22.38;17.48;;;4.10;94.40;;;;;;6289882;28;20065;-74
2020/12/11 16:18:00;;;;;;;26.15;19.30;;;4.20;94.40;;;;;;6288850;28;20533;-74